sensor_id;sensor_type;location;lat;lon;timestamp;P1;durP1;ratioP1;P2;durP2;ratioP2
46158;SDS011;31888;44.512;26.104;2022-07-17T00:00:59;18.27;;;14.88;;
46158;SDS011;31888;44.512;26.104;2022-07-17T00:03:05;24.92;;;15.07;;
46158;SDS011;31888;44.512;26.104;2022-07-17T00:05:09;22.92;;;15.45;;
46158;SDS011;31888;44.512;26.104;2022-07-17T00:07:14;26.33;;;15.90;;
46158;SDS011;31888;44.512;26.104;2022-07-17T00:09:18;20.08;;;14.50;;
46158;SDS011;31888;44.512;26.104;2022-07-17T00:11:23;15.57;;;12.55;;
46158;SDS011;31888;44.512;26.104;2022-07-17T00:13:28;19.95;;;13.15;;
46158;SDS011;31888;44.512;26.104;2022-07-17T00:15:33;25.13;;;14.23;;
46158;SDS011;31888;44.512;26.104;2022-07-17T00:17:38;18.50;;;13.48;;
46158;SDS011;31888;44.512;26.104;2022-07-17T00:19:44;20.23;;;14.13;;
46158;SDS011;31888;44.512;26.104;2022-07-17T00:21:48;21.05;;;14.30;;
46158;SDS011;31888;44.512;26.104;2022-07-17T00:23:52;21.92;;;13.82;;
46158;SDS011;31888;44.512;26.104;2022-07-17T00:25:57;17.20;;;13.80;;
46158;SDS011;31888;44.512;26.104;2022-07-17T00:28:02;18.83;;;13.35;;
46158;SDS011;31888;44.512;26.104;2022-07-17T00:30:07;19.17;;;12.68;;
46158;SDS011;31888;44.512;26.104;2022-07-17T00:32:12;19.00;;;14.18;;
46158;SDS011;31888;44.512;26.104;2022-07-17T00:34:17;22.75;;;15.10;;
46158;SDS011;31888;44.512;26.104;2022-07-17T00:36:24;20.65;;;14.05;;
46158;SDS011;31888;44.512;26.104;2022-07-17T00:38:29;22.88;;;16.27;;
46158;SDS011;31888;44.512;26.104;2022-07-17T00:40:33;22.20;;;16.23;;
46158;SDS011;31888;44.512;26.104;2022-07-17T00:42:41;16.77;;;14.75;;
46158;SDS011;31888;44.512;26.104;2022-07-17T00:44:46;21.02;;;14.60;;
46158;SDS011;31888;44.512;26.104;2022-07-17T00:46:51;18.40;;;13.30;;
46158;SDS011;31888;44.512;26.104;2022-07-17T00:48:56;15.93;;;12.68;;
46158;SDS011;31888;44.512;26.104;2022-07-17T00:51:00;16.60;;;11.73;;
46158;SDS011;31888;44.512;26.104;2022-07-17T00:53:07;17.15;;;13.50;;
46158;SDS011;31888;44.512;26.104;2022-07-17T00:55:13;19.58;;;12.20;;
46158;SDS011;31888;44.512;26.104;2022-07-17T00:57:38;16.80;;;11.88;;
46158;SDS011;31888;44.512;26.104;2022-07-17T00:59:44;14.30;;;11.88;;
46158;SDS011;31888;44.512;26.104;2022-07-17T01:01:48;15.35;;;12.52;;
46158;SDS011;31888;44.512;26.104;2022-07-17T01:03:53;16.75;;;11.77;;
46158;SDS011;31888;44.512;26.104;2022-07-17T01:05:57;18.55;;;12.15;;
46158;SDS011;31888;44.512;26.104;2022-07-17T01:08:01;19.10;;;12.82;;
46158;SDS011;31888;44.512;26.104;2022-07-17T01:10:08;19.65;;;12.85;;
46158;SDS011;31888;44.512;26.104;2022-07-17T01:12:14;22.42;;;13.55;;
46158;SDS011;31888;44.512;26.104;2022-07-17T01:14:20;20.65;;;14.27;;
46158;SDS011;31888;44.512;26.104;2022-07-17T01:16:25;19.65;;;12.85;;
46158;SDS011;31888;44.512;26.104;2022-07-17T01:18:31;23.02;;;13.52;;
46158;SDS011;31888;44.512;26.104;2022-07-17T01:20:35;19.88;;;13.07;;
46158;SDS011;31888;44.512;26.104;2022-07-17T01:22:43;21.58;;;13.45;;
46158;SDS011;31888;44.512;26.104;2022-07-17T01:24:50;24.33;;;12.93;;
46158;SDS011;31888;44.512;26.104;2022-07-17T01:26:55;22.80;;;13.20;;
46158;SDS011;31888;44.512;26.104;2022-07-17T01:28:59;21.67;;;14.75;;
46158;SDS011;31888;44.512;26.104;2022-07-17T01:31:04;30.75;;;13.85;;
46158;SDS011;31888;44.512;26.104;2022-07-17T01:33:09;20.52;;;12.75;;
46158;SDS011;31888;44.512;26.104;2022-07-17T01:35:15;19.17;;;12.73;;
46158;SDS011;31888;44.512;26.104;2022-07-17T01:37:19;17.83;;;12.35;;
46158;SDS011;31888;44.512;26.104;2022-07-17T01:39:27;18.20;;;14.10;;
46158;SDS011;31888;44.512;26.104;2022-07-17T01:43:52;14.50;;;12.40;;
46158;SDS011;31888;44.512;26.104;2022-07-17T01:45:57;22.38;;;12.93;;
46158;SDS011;31888;44.512;26.104;2022-07-17T01:48:02;21.23;;;12.15;;
46158;SDS011;31888;44.512;26.104;2022-07-17T01:50:07;15.18;;;12.77;;
46158;SDS011;31888;44.512;26.104;2022-07-17T01:52:13;19.25;;;12.70;;
46158;SDS011;31888;44.512;26.104;2022-07-17T01:54:18;18.80;;;11.93;;
46158;SDS011;31888;44.512;26.104;2022-07-17T01:56:24;16.23;;;11.15;;
46158;SDS011;31888;44.512;26.104;2022-07-17T01:58:29;15.00;;;11.38;;
46158;SDS011;31888;44.512;26.104;2022-07-17T02:00:33;18.80;;;11.43;;
46158;SDS011;31888;44.512;26.104;2022-07-17T02:02:38;14.00;;;10.98;;
46158;SDS011;31888;44.512;26.104;2022-07-17T02:04:42;16.70;;;12.15;;
46158;SDS011;31888;44.512;26.104;2022-07-17T02:06:48;16.20;;;11.35;;
46158;SDS011;31888;44.512;26.104;2022-07-17T02:08:52;20.10;;;11.30;;
46158;SDS011;31888;44.512;26.104;2022-07-17T02:10:57;15.95;;;11.38;;
46158;SDS011;31888;44.512;26.104;2022-07-17T02:13:03;17.50;;;12.77;;
46158;SDS011;31888;44.512;26.104;2022-07-17T02:15:07;20.83;;;12.07;;
46158;SDS011;31888;44.512;26.104;2022-07-17T02:17:12;18.13;;;11.55;;
46158;SDS011;31888;44.512;26.104;2022-07-17T02:19:17;16.77;;;11.38;;
46158;SDS011;31888;44.512;26.104;2022-07-17T02:21:21;17.27;;;10.80;;
46158;SDS011;31888;44.512;26.104;2022-07-17T02:23:26;24.52;;;12.25;;
46158;SDS011;31888;44.512;26.104;2022-07-17T02:25:31;14.73;;;10.88;;
46158;SDS011;31888;44.512;26.104;2022-07-17T02:27:37;17.95;;;10.07;;
46158;SDS011;31888;44.512;26.104;2022-07-17T02:29:44;14.43;;;10.38;;
46158;SDS011;31888;44.512;26.104;2022-07-17T02:31:48;14.43;;;10.30;;
46158;SDS011;31888;44.512;26.104;2022-07-17T02:33:52;14.98;;;10.20;;
46158;SDS011;31888;44.512;26.104;2022-07-17T02:35:57;19.77;;;10.02;;
46158;SDS011;31888;44.512;26.104;2022-07-17T02:38:03;16.70;;;10.50;;
46158;SDS011;31888;44.512;26.104;2022-07-17T02:40:08;13.57;;;9.95;;
46158;SDS011;31888;44.512;26.104;2022-07-17T02:42:13;14.43;;;9.65;;
46158;SDS011;31888;44.512;26.104;2022-07-17T02:44:18;15.55;;;10.27;;
46158;SDS011;31888;44.512;26.104;2022-07-17T02:46:24;12.52;;;9.77;;
46158;SDS011;31888;44.512;26.104;2022-07-17T02:48:29;14.43;;;10.55;;
46158;SDS011;31888;44.512;26.104;2022-07-17T02:50:34;15.23;;;10.05;;
46158;SDS011;31888;44.512;26.104;2022-07-17T02:52:38;13.07;;;10.02;;
46158;SDS011;31888;44.512;26.104;2022-07-17T02:54:43;18.55;;;10.32;;
46158;SDS011;31888;44.512;26.104;2022-07-17T02:56:49;18.52;;;11.35;;
46158;SDS011;31888;44.512;26.104;2022-07-17T02:58:53;18.13;;;10.23;;
46158;SDS011;31888;44.512;26.104;2022-07-17T03:00:58;16.60;;;9.77;;
46158;SDS011;31888;44.512;26.104;2022-07-17T03:03:04;21.65;;;10.65;;
46158;SDS011;31888;44.512;26.104;2022-07-17T03:05:08;19.80;;;9.77;;
46158;SDS011;31888;44.512;26.104;2022-07-17T03:07:13;15.25;;;9.85;;
46158;SDS011;31888;44.512;26.104;2022-07-17T03:09:17;14.57;;;10.30;;
46158;SDS011;31888;44.512;26.104;2022-07-17T03:11:22;17.52;;;9.48;;
46158;SDS011;31888;44.512;26.104;2022-07-17T03:13:27;19.00;;;9.13;;
46158;SDS011;31888;44.512;26.104;2022-07-17T03:15:32;19.38;;;9.50;;
46158;SDS011;31888;44.512;26.104;2022-07-17T03:17:37;14.98;;;9.15;;
46158;SDS011;31888;44.512;26.104;2022-07-17T03:19:43;12.95;;;9.43;;
46158;SDS011;31888;44.512;26.104;2022-07-17T03:21:47;15.75;;;8.93;;
46158;SDS011;31888;44.512;26.104;2022-07-17T03:23:52;9.80;;;8.73;;
46158;SDS011;31888;44.512;26.104;2022-07-17T03:25:56;14.65;;;8.15;;
46158;SDS011;31888;44.512;26.104;2022-07-17T03:28:01;12.02;;;8.07;;
46158;SDS011;31888;44.512;26.104;2022-07-17T03:30:07;12.05;;;7.82;;
46158;SDS011;31888;44.512;26.104;2022-07-17T03:32:11;13.13;;;7.88;;
46158;SDS011;31888;44.512;26.104;2022-07-17T03:34:16;28.02;;;8.73;;
46158;SDS011;31888;44.512;26.104;2022-07-17T03:36:22;14.18;;;7.07;;
46158;SDS011;31888;44.512;26.104;2022-07-17T03:38:27;16.25;;;6.97;;
46158;SDS011;31888;44.512;26.104;2022-07-17T03:40:31;13.48;;;7.03;;
46158;SDS011;31888;44.512;26.104;2022-07-17T03:42:37;10.85;;;7.00;;
46158;SDS011;31888;44.512;26.104;2022-07-17T03:44:41;17.92;;;8.13;;
46158;SDS011;31888;44.512;26.104;2022-07-17T03:46:46;23.13;;;11.18;;
46158;SDS011;31888;44.512;26.104;2022-07-17T03:48:50;21.60;;;10.75;;
46158;SDS011;31888;44.512;26.104;2022-07-17T03:50:55;23.13;;;10.85;;
46158;SDS011;31888;44.512;26.104;2022-07-17T03:53:01;21.42;;;10.30;;
46158;SDS011;31888;44.512;26.104;2022-07-17T03:55:06;19.48;;;7.60;;
46158;SDS011;31888;44.512;26.104;2022-07-17T03:57:11;16.35;;;7.68;;
46158;SDS011;31888;44.512;26.104;2022-07-17T03:59:16;13.95;;;7.38;;
46158;SDS011;31888;44.512;26.104;2022-07-17T04:01:21;13.35;;;7.03;;
46158;SDS011;31888;44.512;26.104;2022-07-17T04:03:25;14.40;;;6.38;;
46158;SDS011;31888;44.512;26.104;2022-07-17T04:05:30;10.43;;;6.53;;
46158;SDS011;31888;44.512;26.104;2022-07-17T04:07:35;15.45;;;6.40;;
46158;SDS011;31888;44.512;26.104;2022-07-17T04:09:41;13.77;;;5.90;;
46158;SDS011;31888;44.512;26.104;2022-07-17T04:11:46;9.88;;;6.35;;
46158;SDS011;31888;44.512;26.104;2022-07-17T04:13:50;12.05;;;6.80;;
46158;SDS011;31888;44.512;26.104;2022-07-17T04:15:55;11.27;;;7.18;;
46158;SDS011;31888;44.512;26.104;2022-07-17T04:18:00;11.48;;;6.30;;
46158;SDS011;31888;44.512;26.104;2022-07-17T04:20:05;21.02;;;7.15;;
46158;SDS011;31888;44.512;26.104;2022-07-17T04:22:10;10.45;;;7.15;;
46158;SDS011;31888;44.512;26.104;2022-07-17T04:24:15;13.13;;;5.90;;
46158;SDS011;31888;44.512;26.104;2022-07-17T04:26:21;10.32;;;6.25;;
46158;SDS011;31888;44.512;26.104;2022-07-17T04:28:26;10.73;;;6.35;;
46158;SDS011;31888;44.512;26.104;2022-07-17T04:30:30;13.90;;;5.75;;
46158;SDS011;31888;44.512;26.104;2022-07-17T04:32:35;9.90;;;5.65;;
46158;SDS011;31888;44.512;26.104;2022-07-17T04:34:40;31.13;;;13.00;;
46158;SDS011;31888;44.512;26.104;2022-07-17T04:36:45;25.60;;;11.05;;
46158;SDS011;31888;44.512;26.104;2022-07-17T04:38:48;17.45;;;9.07;;
46158;SDS011;31888;44.512;26.104;2022-07-17T04:40:53;13.90;;;7.55;;
46158;SDS011;31888;44.512;26.104;2022-07-17T04:42:59;7.50;;;5.65;;
46158;SDS011;31888;44.512;26.104;2022-07-17T04:45:04;8.95;;;5.55;;
46158;SDS011;31888;44.512;26.104;2022-07-17T04:47:10;9.00;;;5.22;;
46158;SDS011;31888;44.512;26.104;2022-07-17T04:49:14;11.90;;;5.57;;
46158;SDS011;31888;44.512;26.104;2022-07-17T04:51:19;8.25;;;5.63;;
46158;SDS011;31888;44.512;26.104;2022-07-17T04:53:23;6.32;;;4.60;;
46158;SDS011;31888;44.512;26.104;2022-07-17T04:55:28;9.02;;;5.93;;
46158;SDS011;31888;44.512;26.104;2022-07-17T04:57:35;10.85;;;5.30;;
46158;SDS011;31888;44.512;26.104;2022-07-17T05:01:50;8.15;;;4.82;;
46158;SDS011;31888;44.512;26.104;2022-07-17T05:03:54;7.97;;;4.60;;
46158;SDS011;31888;44.512;26.104;2022-07-17T05:05:59;11.77;;;4.50;;
46158;SDS011;31888;44.512;26.104;2022-07-17T05:08:05;10.07;;;4.72;;
46158;SDS011;31888;44.512;26.104;2022-07-17T05:10:35;10.63;;;4.97;;
46158;SDS011;31888;44.512;26.104;2022-07-17T05:12:47;7.20;;;5.22;;
46158;SDS011;31888;44.512;26.104;2022-07-17T05:14:55;7.78;;;4.15;;
46158;SDS011;31888;44.512;26.104;2022-07-17T05:17:01;6.53;;;4.60;;
46158;SDS011;31888;44.512;26.104;2022-07-17T05:19:05;7.68;;;4.45;;
46158;SDS011;31888;44.512;26.104;2022-07-17T05:21:10;20.52;;;5.22;;
46158;SDS011;31888;44.512;26.104;2022-07-17T05:23:20;9.68;;;4.97;;
46158;SDS011;31888;44.512;26.104;2022-07-17T05:25:25;7.15;;;5.25;;
46158;SDS011;31888;44.512;26.104;2022-07-17T05:27:29;6.90;;;5.10;;
46158;SDS011;31888;44.512;26.104;2022-07-17T05:29:34;8.13;;;5.28;;
46158;SDS011;31888;44.512;26.104;2022-07-17T05:31:41;10.98;;;4.72;;
46158;SDS011;31888;44.512;26.104;2022-07-17T05:33:45;7.72;;;4.82;;
46158;SDS011;31888;44.512;26.104;2022-07-17T05:35:53;7.20;;;4.75;;
46158;SDS011;31888;44.512;26.104;2022-07-17T05:37:58;8.05;;;4.43;;
46158;SDS011;31888;44.512;26.104;2022-07-17T05:40:04;7.68;;;4.95;;
46158;SDS011;31888;44.512;26.104;2022-07-17T05:42:11;9.25;;;4.65;;
46158;SDS011;31888;44.512;26.104;2022-07-17T05:44:15;5.20;;;4.28;;
46158;SDS011;31888;44.512;26.104;2022-07-17T05:46:19;8.35;;;4.90;;
46158;SDS011;31888;44.512;26.104;2022-07-17T05:48:25;7.88;;;4.57;;
46158;SDS011;31888;44.512;26.104;2022-07-17T05:50:30;7.63;;;4.53;;
46158;SDS011;31888;44.512;26.104;2022-07-17T05:52:35;5.55;;;4.68;;
46158;SDS011;31888;44.512;26.104;2022-07-17T05:54:44;7.70;;;4.38;;
46158;SDS011;31888;44.512;26.104;2022-07-17T05:56:48;8.82;;;5.20;;
46158;SDS011;31888;44.512;26.104;2022-07-17T05:58:52;7.90;;;4.40;;
46158;SDS011;31888;44.512;26.104;2022-07-17T06:00:57;12.43;;;4.53;;
46158;SDS011;31888;44.512;26.104;2022-07-17T06:03:01;8.13;;;5.05;;
46158;SDS011;31888;44.512;26.104;2022-07-17T06:05:08;7.00;;;4.55;;
46158;SDS011;31888;44.512;26.104;2022-07-17T06:07:21;4.20;;;3.72;;
46158;SDS011;31888;44.512;26.104;2022-07-17T06:09:25;7.50;;;5.15;;
46158;SDS011;31888;44.512;26.104;2022-07-17T06:11:30;9.30;;;4.88;;
46158;SDS011;31888;44.512;26.104;2022-07-17T06:13:39;7.00;;;5.00;;
46158;SDS011;31888;44.512;26.104;2022-07-17T06:15:43;12.60;;;5.22;;
46158;SDS011;31888;44.512;26.104;2022-07-17T06:17:48;7.13;;;4.53;;
46158;SDS011;31888;44.512;26.104;2022-07-17T06:19:53;5.43;;;4.45;;
46158;SDS011;31888;44.512;26.104;2022-07-17T06:21:59;7.00;;;4.63;;
46158;SDS011;31888;44.512;26.104;2022-07-17T06:24:04;7.15;;;4.90;;
46158;SDS011;31888;44.512;26.104;2022-07-17T06:26:08;12.15;;;5.40;;
46158;SDS011;31888;44.512;26.104;2022-07-17T06:28:12;11.40;;;4.85;;
46158;SDS011;31888;44.512;26.104;2022-07-17T06:30:17;7.50;;;4.30;;
46158;SDS011;31888;44.512;26.104;2022-07-17T06:32:21;7.18;;;4.53;;
46158;SDS011;31888;44.512;26.104;2022-07-17T06:34:25;11.02;;;5.35;;
46158;SDS011;31888;44.512;26.104;2022-07-17T06:36:30;6.95;;;4.63;;
46158;SDS011;31888;44.512;26.104;2022-07-17T06:38:36;9.77;;;5.70;;
46158;SDS011;31888;44.512;26.104;2022-07-17T06:40:41;7.05;;;4.88;;
46158;SDS011;31888;44.512;26.104;2022-07-17T06:42:45;7.28;;;4.55;;
46158;SDS011;31888;44.512;26.104;2022-07-17T06:44:50;9.70;;;4.57;;
46158;SDS011;31888;44.512;26.104;2022-07-17T06:46:54;9.48;;;4.43;;
46158;SDS011;31888;44.512;26.104;2022-07-17T06:48:58;6.32;;;4.57;;
46158;SDS011;31888;44.512;26.104;2022-07-17T06:51:03;10.38;;;4.95;;
46158;SDS011;31888;44.512;26.104;2022-07-17T06:53:07;10.00;;;5.32;;
46158;SDS011;31888;44.512;26.104;2022-07-17T06:55:13;9.20;;;4.50;;
46158;SDS011;31888;44.512;26.104;2022-07-17T06:57:17;9.60;;;4.93;;
46158;SDS011;31888;44.512;26.104;2022-07-17T06:59:22;7.78;;;4.43;;
46158;SDS011;31888;44.512;26.104;2022-07-17T07:01:26;6.93;;;4.78;;
46158;SDS011;31888;44.512;26.104;2022-07-17T07:03:31;7.85;;;4.78;;
46158;SDS011;31888;44.512;26.104;2022-07-17T07:05:36;6.03;;;4.47;;
46158;SDS011;31888;44.512;26.104;2022-07-17T07:07:40;12.35;;;5.35;;
46158;SDS011;31888;44.512;26.104;2022-07-17T07:09:45;5.75;;;4.65;;
46158;SDS011;31888;44.512;26.104;2022-07-17T07:11:51;9.63;;;4.80;;
46158;SDS011;31888;44.512;26.104;2022-07-17T07:13:55;8.75;;;4.55;;
46158;SDS011;31888;44.512;26.104;2022-07-17T07:16:00;9.27;;;4.20;;
46158;SDS011;31888;44.512;26.104;2022-07-17T07:18:05;9.57;;;4.07;;
46158;SDS011;31888;44.512;26.104;2022-07-17T07:20:09;7.25;;;4.55;;
46158;SDS011;31888;44.512;26.104;2022-07-17T07:22:16;6.63;;;5.28;;
46158;SDS011;31888;44.512;26.104;2022-07-17T07:24:21;5.35;;;4.03;;
46158;SDS011;31888;44.512;26.104;2022-07-17T07:26:25;8.18;;;4.10;;
46158;SDS011;31888;44.512;26.104;2022-07-17T07:28:31;6.63;;;4.40;;
46158;SDS011;31888;44.512;26.104;2022-07-17T07:30:36;5.82;;;3.70;;
46158;SDS011;31888;44.512;26.104;2022-07-17T07:32:40;7.72;;;3.35;;
46158;SDS011;31888;44.512;26.104;2022-07-17T07:34:45;5.38;;;3.75;;
46158;SDS011;31888;44.512;26.104;2022-07-17T07:36:49;7.30;;;3.55;;
46158;SDS011;31888;44.512;26.104;2022-07-17T07:38:54;7.50;;;4.00;;
46158;SDS011;31888;44.512;26.104;2022-07-17T07:40:58;4.93;;;3.40;;
46158;SDS011;31888;44.512;26.104;2022-07-17T07:43:03;5.45;;;3.85;;
46158;SDS011;31888;44.512;26.104;2022-07-17T07:45:10;8.65;;;3.90;;
46158;SDS011;31888;44.512;26.104;2022-07-17T07:47:14;4.47;;;3.95;;
46158;SDS011;31888;44.512;26.104;2022-07-17T07:49:19;9.77;;;4.95;;
46158;SDS011;31888;44.512;26.104;2022-07-17T07:51:23;9.65;;;4.70;;
46158;SDS011;31888;44.512;26.104;2022-07-17T07:53:47;7.25;;;4.57;;
46158;SDS011;31888;44.512;26.104;2022-07-17T07:55:52;6.57;;;4.03;;
46158;SDS011;31888;44.512;26.104;2022-07-17T07:58:02;10.40;;;4.40;;
46158;SDS011;31888;44.512;26.104;2022-07-17T08:00:08;7.82;;;4.20;;
46158;SDS011;31888;44.512;26.104;2022-07-17T08:02:18;9.05;;;4.35;;
46158;SDS011;31888;44.512;26.104;2022-07-17T08:04:23;10.32;;;5.22;;
46158;SDS011;31888;44.512;26.104;2022-07-17T08:06:27;6.70;;;4.55;;
46158;SDS011;31888;44.512;26.104;2022-07-17T08:08:32;10.57;;;4.78;;
46158;SDS011;31888;44.512;26.104;2022-07-17T08:10:41;10.77;;;4.55;;
46158;SDS011;31888;44.512;26.104;2022-07-17T08:12:45;4.40;;;3.88;;
46158;SDS011;31888;44.512;26.104;2022-07-17T08:14:50;11.20;;;4.10;;
46158;SDS011;31888;44.512;26.104;2022-07-17T08:16:55;6.22;;;4.35;;
46158;SDS011;31888;44.512;26.104;2022-07-17T08:19:00;6.60;;;4.03;;
46158;SDS011;31888;44.512;26.104;2022-07-17T08:21:04;8.48;;;4.07;;
46158;SDS011;31888;44.512;26.104;2022-07-17T08:23:12;6.60;;;3.80;;
46158;SDS011;31888;44.512;26.104;2022-07-17T08:25:16;14.45;;;4.72;;
46158;SDS011;31888;44.512;26.104;2022-07-17T08:27:21;7.22;;;3.70;;
46158;SDS011;31888;44.512;26.104;2022-07-17T08:29:25;5.82;;;3.50;;
46158;SDS011;31888;44.512;26.104;2022-07-17T08:31:50;4.07;;;3.15;;
46158;SDS011;31888;44.512;26.104;2022-07-17T08:33:57;5.68;;;3.28;;
46158;SDS011;31888;44.512;26.104;2022-07-17T08:36:02;4.57;;;3.53;;
46158;SDS011;31888;44.512;26.104;2022-07-17T08:38:06;6.43;;;3.42;;
46158;SDS011;31888;44.512;26.104;2022-07-17T08:40:17;5.25;;;3.97;;
46158;SDS011;31888;44.512;26.104;2022-07-17T08:42:22;6.70;;;3.60;;
46158;SDS011;31888;44.512;26.104;2022-07-17T08:44:34;5.40;;;3.60;;
46158;SDS011;31888;44.512;26.104;2022-07-17T08:46:41;4.72;;;3.60;;
46158;SDS011;31888;44.512;26.104;2022-07-17T08:48:47;5.75;;;3.42;;
46158;SDS011;31888;44.512;26.104;2022-07-17T08:50:58;10.93;;;3.55;;
46158;SDS011;31888;44.512;26.104;2022-07-17T08:53:02;8.18;;;4.05;;
46158;SDS011;31888;44.512;26.104;2022-07-17T08:55:08;5.55;;;3.90;;
46158;SDS011;31888;44.512;26.104;2022-07-17T08:57:15;5.82;;;3.45;;
46158;SDS011;31888;44.512;26.104;2022-07-17T08:59:21;4.07;;;3.35;;
46158;SDS011;31888;44.512;26.104;2022-07-17T09:01:25;4.95;;;3.30;;
46158;SDS011;31888;44.512;26.104;2022-07-17T09:03:30;5.28;;;3.15;;
46158;SDS011;31888;44.512;26.104;2022-07-17T09:05:43;6.75;;;2.90;;
46158;SDS011;31888;44.512;26.104;2022-07-17T09:07:50;7.47;;;3.40;;
46158;SDS011;31888;44.512;26.104;2022-07-17T09:09:55;8.00;;;3.17;;
46158;SDS011;31888;44.512;26.104;2022-07-17T09:12:00;4.35;;;2.88;;
46158;SDS011;31888;44.512;26.104;2022-07-17T09:14:08;4.27;;;3.17;;
46158;SDS011;31888;44.512;26.104;2022-07-17T09:16:13;5.00;;;2.72;;
46158;SDS011;31888;44.512;26.104;2022-07-17T09:18:17;4.13;;;3.17;;
46158;SDS011;31888;44.512;26.104;2022-07-17T09:20:23;5.22;;;3.20;;
46158;SDS011;31888;44.512;26.104;2022-07-17T09:22:28;4.30;;;2.42;;
46158;SDS011;31888;44.512;26.104;2022-07-17T09:24:46;5.95;;;2.72;;
46158;SDS011;31888;44.512;26.104;2022-07-17T09:26:51;6.28;;;2.58;;
46158;SDS011;31888;44.512;26.104;2022-07-17T09:28:59;6.28;;;2.47;;
46158;SDS011;31888;44.512;26.104;2022-07-17T09:31:04;3.58;;;2.78;;
46158;SDS011;31888;44.512;26.104;2022-07-17T09:33:13;6.38;;;3.10;;
46158;SDS011;31888;44.512;26.104;2022-07-17T09:35:20;3.47;;;2.67;;
46158;SDS011;31888;44.512;26.104;2022-07-17T09:37:26;4.05;;;2.67;;
46158;SDS011;31888;44.512;26.104;2022-07-17T09:39:34;3.55;;;3.00;;
46158;SDS011;31888;44.512;26.104;2022-07-17T09:41:40;3.25;;;2.70;;
46158;SDS011;31888;44.512;26.104;2022-07-17T09:43:46;3.47;;;2.88;;
46158;SDS011;31888;44.512;26.104;2022-07-17T09:45:52;3.70;;;2.78;;
46158;SDS011;31888;44.512;26.104;2022-07-17T09:47:57;5.55;;;2.72;;
46158;SDS011;31888;44.512;26.104;2022-07-17T09:50:02;3.45;;;2.63;;
46158;SDS011;31888;44.512;26.104;2022-07-17T09:52:08;7.80;;;2.90;;
46158;SDS011;31888;44.512;26.104;2022-07-17T09:54:14;5.93;;;2.88;;
46158;SDS011;31888;44.512;26.104;2022-07-17T09:56:23;6.47;;;3.07;;
46158;SDS011;31888;44.512;26.104;2022-07-17T09:58:30;5.20;;;3.00;;
46158;SDS011;31888;44.512;26.104;2022-07-17T10:00:39;3.00;;;2.50;;
46158;SDS011;31888;44.512;26.104;2022-07-17T10:02:43;8.13;;;3.42;;
46158;SDS011;31888;44.512;26.104;2022-07-17T10:04:50;3.30;;;2.58;;
46158;SDS011;31888;44.512;26.104;2022-07-17T10:06:55;4.65;;;2.83;;
46158;SDS011;31888;44.512;26.104;2022-07-17T10:09:00;5.28;;;2.55;;
46158;SDS011;31888;44.512;26.104;2022-07-17T10:11:05;4.45;;;2.70;;
46158;SDS011;31888;44.512;26.104;2022-07-17T10:13:10;4.05;;;2.92;;
46158;SDS011;31888;44.512;26.104;2022-07-17T10:15:19;2.60;;;2.40;;
46158;SDS011;31888;44.512;26.104;2022-07-17T10:17:28;3.55;;;2.95;;
46158;SDS011;31888;44.512;26.104;2022-07-17T10:19:32;6.40;;;2.92;;
46158;SDS011;31888;44.512;26.104;2022-07-17T10:21:37;6.55;;;3.35;;
46158;SDS011;31888;44.512;26.104;2022-07-17T10:23:42;7.32;;;2.67;;
46158;SDS011;31888;44.512;26.104;2022-07-17T10:25:56;5.68;;;3.08;;
46158;SDS011;31888;44.512;26.104;2022-07-17T10:28:01;2.95;;;2.63;;
46158;SDS011;31888;44.512;26.104;2022-07-17T10:30:06;4.35;;;3.08;;
46158;SDS011;31888;44.512;26.104;2022-07-17T10:32:15;4.13;;;2.70;;
46158;SDS011;31888;44.512;26.104;2022-07-17T10:34:35;7.87;;;3.13;;
46158;SDS011;31888;44.512;26.104;2022-07-17T10:36:44;3.20;;;2.88;;
46158;SDS011;31888;44.512;26.104;2022-07-17T10:38:48;9.43;;;4.07;;
46158;SDS011;31888;44.512;26.104;2022-07-17T10:40:58;5.03;;;3.08;;
46158;SDS011;31888;44.512;26.104;2022-07-17T10:43:04;4.57;;;3.13;;
46158;SDS011;31888;44.512;26.104;2022-07-17T10:45:11;5.38;;;2.92;;
46158;SDS011;31888;44.512;26.104;2022-07-17T10:47:18;6.90;;;2.80;;
46158;SDS011;31888;44.512;26.104;2022-07-17T10:49:25;3.85;;;2.70;;
46158;SDS011;31888;44.512;26.104;2022-07-17T10:51:30;6.35;;;3.33;;
46158;SDS011;31888;44.512;26.104;2022-07-17T10:53:50;5.43;;;3.45;;
46158;SDS011;31888;44.512;26.104;2022-07-17T10:56:07;4.45;;;2.78;;
46158;SDS011;31888;44.512;26.104;2022-07-17T10:58:19;4.50;;;2.90;;
46158;SDS011;31888;44.512;26.104;2022-07-17T11:00:26;4.68;;;3.22;;
46158;SDS011;31888;44.512;26.104;2022-07-17T11:02:39;6.55;;;3.05;;
46158;SDS011;31888;44.512;26.104;2022-07-17T11:05:05;5.05;;;3.17;;
46158;SDS011;31888;44.512;26.104;2022-07-17T11:07:09;3.70;;;3.00;;
46158;SDS011;31888;44.512;26.104;2022-07-17T11:09:13;6.10;;;2.90;;
46158;SDS011;31888;44.512;26.104;2022-07-17T11:11:19;4.57;;;3.03;;
46158;SDS011;31888;44.512;26.104;2022-07-17T11:13:32;4.85;;;2.88;;
46158;SDS011;31888;44.512;26.104;2022-07-17T11:15:38;4.65;;;2.72;;
46158;SDS011;31888;44.512;26.104;2022-07-17T11:17:46;7.82;;;3.30;;
46158;SDS011;31888;44.512;26.104;2022-07-17T11:19:50;9.25;;;3.80;;
46158;SDS011;31888;44.512;26.104;2022-07-17T11:21:56;3.63;;;3.25;;
46158;SDS011;31888;44.512;26.104;2022-07-17T11:24:01;4.25;;;3.22;;
46158;SDS011;31888;44.512;26.104;2022-07-17T11:26:06;7.20;;;3.20;;
46158;SDS011;31888;44.512;26.104;2022-07-17T11:28:11;6.07;;;3.42;;
46158;SDS011;31888;44.512;26.104;2022-07-17T11:30:15;7.25;;;3.10;;
46158;SDS011;31888;44.512;26.104;2022-07-17T11:32:23;10.65;;;3.70;;
46158;SDS011;31888;44.512;26.104;2022-07-17T11:34:30;5.65;;;3.08;;
46158;SDS011;31888;44.512;26.104;2022-07-17T11:36:35;37.50;;;27.73;;
46158;SDS011;31888;44.512;26.104;2022-07-17T11:38:41;39.65;;;29.42;;
46158;SDS011;31888;44.512;26.104;2022-07-17T11:40:46;21.33;;;18.13;;
46158;SDS011;31888;44.512;26.104;2022-07-17T11:42:58;7.10;;;4.82;;
46158;SDS011;31888;44.512;26.104;2022-07-17T11:45:03;5.32;;;3.28;;
46158;SDS011;31888;44.512;26.104;2022-07-17T11:47:09;4.10;;;2.97;;
46158;SDS011;31888;44.512;26.104;2022-07-17T11:49:23;5.60;;;2.72;;
46158;SDS011;31888;44.512;26.104;2022-07-17T11:51:37;3.47;;;2.88;;
46158;SDS011;31888;44.512;26.104;2022-07-17T11:53:42;6.80;;;3.42;;
46158;SDS011;31888;44.512;26.104;2022-07-17T11:55:46;6.32;;;3.58;;
46158;SDS011;31888;44.512;26.104;2022-07-17T11:57:50;4.10;;;2.70;;
46158;SDS011;31888;44.512;26.104;2022-07-17T12:00:04;4.88;;;2.95;;
46158;SDS011;31888;44.512;26.104;2022-07-17T12:02:13;7.95;;;2.90;;
46158;SDS011;31888;44.512;26.104;2022-07-17T12:04:19;5.10;;;2.53;;
46158;SDS011;31888;44.512;26.104;2022-07-17T12:06:23;6.18;;;2.92;;
46158;SDS011;31888;44.512;26.104;2022-07-17T12:08:31;7.82;;;2.97;;
46158;SDS011;31888;44.512;26.104;2022-07-17T12:10:36;5.57;;;2.78;;
46158;SDS011;31888;44.512;26.104;2022-07-17T12:12:50;3.30;;;2.30;;
46158;SDS011;31888;44.512;26.104;2022-07-17T12:14:56;4.20;;;2.92;;
46158;SDS011;31888;44.512;26.104;2022-07-17T12:17:02;3.97;;;2.58;;
46158;SDS011;31888;44.512;26.104;2022-07-17T12:19:09;5.30;;;2.95;;
46158;SDS011;31888;44.512;26.104;2022-07-17T12:21:17;5.40;;;2.88;;
46158;SDS011;31888;44.512;26.104;2022-07-17T12:23:28;3.42;;;2.50;;
46158;SDS011;31888;44.512;26.104;2022-07-17T12:25:35;4.03;;;2.97;;